createdAt,value
2022-10-11T00:00:56.176Z,51.111263
2022-10-11T00:01:56.151Z,51.111263
2022-10-11T00:02:56.121Z,51.111225
2022-10-11T00:03:56.223Z,51.111259
2022-10-11T00:04:56.172Z,51.111275
2022-10-11T00:05:56.089Z,51.111217
2022-10-11T00:06:56.217Z,51.111256
2022-10-11T00:07:56.161Z,51.111256
2022-10-11T00:08:56.063Z,51.111233
2022-10-11T00:09:56.159Z,51.111202
2022-10-11T00:10:56.145Z,51.111172
2022-10-11T00:11:56.171Z,51.111153
2022-10-11T00:12:56.230Z,51.111130
2022-10-11T00:13:56.155Z,51.111130
2022-10-11T00:14:56.161Z,51.111225
2022-10-11T00:15:56.043Z,51.111259
2022-10-11T00:16:56.027Z,51.111202
2022-10-11T00:17:56.081Z,51.111176
2022-10-11T00:18:56.071Z,51.111164
2022-10-11T00:19:56.079Z,51.111160
2022-10-11T00:20:56.116Z,51.111191
2022-10-11T00:21:55.988Z,51.111195
2022-10-11T00:22:56.078Z,51.111237
2022-10-11T00:23:56.155Z,51.111259
2022-10-11T00:24:55.964Z,51.111305
2022-10-11T00:25:56.088Z,51.111347
2022-10-11T00:26:56.150Z,51.111340
2022-10-11T00:27:55.945Z,51.111351
2022-10-11T00:28:56.109Z,51.111282
2022-10-11T00:29:56.009Z,51.111305
2022-10-11T00:30:55.953Z,51.111229
2022-10-11T00:31:56.010Z,51.111229
2022-10-11T00:32:56.001Z,51.111263
2022-10-11T00:33:55.889Z,51.111286
2022-10-11T00:34:56.021Z,51.111240
2022-10-11T00:35:55.987Z,51.111202
2022-10-11T00:36:55.886Z,51.111229
2022-10-11T00:37:55.893Z,51.111259
2022-10-11T00:38:55.864Z,51.111244
2022-10-11T00:39:55.968Z,51.111263
2022-10-11T00:40:55.873Z,51.111252
2022-10-11T00:41:56.476Z,51.111259
2022-10-11T00:42:55.851Z,51.111275
2022-10-11T00:43:55.921Z,51.111198
2022-10-11T00:44:56.054Z,51.111195
2022-10-11T00:45:55.920Z,51.111279
2022-10-11T00:46:56.194Z,51.111198
2022-10-11T00:47:56.498Z,51.111240
2022-10-11T00:48:55.935Z,51.111259
2022-10-11T00:49:55.876Z,51.111294
2022-10-11T00:50:56.011Z,51.111233
2022-10-11T00:51:55.776Z,51.111244
2022-10-11T00:52:55.841Z,51.111256
2022-10-11T00:53:55.835Z,51.111252
2022-10-11T00:54:55.773Z,51.111214
2022-10-11T00:55:55.776Z,51.111233
2022-10-11T00:56:55.735Z,51.111229
2022-10-11T00:57:55.822Z,51.111233
2022-10-11T00:58:55.731Z,51.111225
2022-10-11T00:59:55.799Z,51.111168
2022-10-11T01:00:55.902Z,51.111206
2022-10-11T01:01:55.787Z,51.111187
2022-10-11T01:02:55.776Z,51.111195
2022-10-11T01:03:55.865Z,51.111240
2022-10-11T01:05:17.986Z,51.111237
2022-10-11T01:05:57.733Z,51.111233
2022-10-11T01:06:55.773Z,51.111210
2022-10-11T01:07:55.784Z,51.111195
2022-10-11T01:08:55.715Z,51.111217
2022-10-11T01:09:56.064Z,51.111229
2022-10-11T01:10:55.651Z,51.111237
2022-10-11T01:11:55.650Z,51.111229
2022-10-11T01:12:55.898Z,51.111217
2022-10-11T01:13:55.632Z,51.111202
2022-10-11T01:14:55.592Z,51.111210
2022-10-11T01:15:55.594Z,51.111237
2022-10-11T01:16:55.716Z,51.111259
2022-10-11T01:17:55.572Z,51.111217
2022-10-11T01:18:55.740Z,51.111179
2022-10-11T01:19:56.507Z,51.111198
2022-10-11T01:20:55.666Z,51.111240
2022-10-11T01:21:55.656Z,51.111198
2022-10-11T01:22:55.681Z,51.111214
2022-10-11T01:23:55.657Z,51.111229
2022-10-11T01:24:55.698Z,51.111210
2022-10-11T01:25:55.840Z,51.111206
2022-10-11T01:26:55.612Z,51.111259
2022-10-11T01:27:55.634Z,51.111202
2022-10-11T01:28:55.729Z,51.111286
2022-10-11T01:29:55.497Z,51.111256
2022-10-11T01:30:55.470Z,51.111229
2022-10-11T01:31:55.490Z,51.111271
2022-10-11T01:33:00.384Z,51.111305
2022-10-11T01:33:55.512Z,51.111282
2022-10-11T01:34:55.443Z,51.111317
2022-10-11T01:35:55.433Z,51.111237
2022-10-11T01:36:55.436Z,51.111248
2022-10-11T01:37:55.428Z,51.111237
2022-10-11T01:38:55.632Z,51.111290
2022-10-11T01:39:55.567Z,51.111225
2022-10-11T01:40:55.412Z,51.111343
2022-10-11T01:41:55.533Z,51.111340
2022-10-11T01:42:55.468Z,51.111320
2022-10-11T01:43:55.476Z,51.111324
2022-10-11T01:44:55.532Z,51.111305
2022-10-11T01:45:55.511Z,51.111320
2022-10-11T01:46:55.444Z,51.111298
2022-10-11T01:47:55.489Z,51.111244
2022-10-11T01:48:55.488Z,51.111225
2022-10-11T01:49:55.507Z,51.111275
2022-10-11T01:50:55.457Z,51.111347
2022-10-11T01:51:55.385Z,51.111332
2022-10-11T01:52:55.337Z,51.111374
2022-10-11T01:53:55.443Z,51.111156
2022-10-11T01:55:09.010Z,51.111130
2022-10-11T01:55:57.351Z,51.111202
2022-10-11T01:56:55.350Z,51.111214
2022-10-11T01:57:55.391Z,51.111240
2022-10-11T01:58:55.269Z,51.111176
2022-10-11T01:59:55.393Z,51.111282
2022-10-11T02:00:55.458Z,51.111229
2022-10-11T02:01:55.429Z,51.111137
2022-10-11T02:02:55.381Z,51.111095
2022-10-11T02:03:55.350Z,51.111103
2022-10-11T02:04:55.343Z,51.111164
2022-10-11T02:05:55.333Z,51.111240
2022-10-11T02:06:55.373Z,51.111229
2022-10-11T02:07:55.315Z,51.111130
2022-10-11T02:08:55.212Z,51.111122
2022-10-11T02:09:55.218Z,51.111217
2022-10-11T02:10:55.210Z,51.111279
2022-10-11T02:11:55.328Z,51.111290
2022-10-11T02:12:55.196Z,51.111252
2022-10-11T02:13:55.163Z,51.111217
2022-10-11T02:14:56.029Z,51.111275
2022-10-11T02:15:55.269Z,51.111225
2022-10-11T02:16:55.157Z,51.111305
2022-10-11T02:17:55.569Z,51.111309
2022-10-11T02:18:55.298Z,51.111328
2022-10-11T02:19:55.216Z,51.111259
2022-10-11T02:20:55.235Z,51.111225
2022-10-11T02:21:55.205Z,51.111282
2022-10-11T02:22:56.051Z,51.111279
2022-10-11T02:23:55.191Z,51.111362
2022-10-11T02:24:55.209Z,51.111320
2022-10-11T02:25:55.091Z,51.111271
2022-10-11T02:26:55.097Z,51.111301
2022-10-11T02:27:55.160Z,51.111340
2022-10-11T02:28:55.212Z,51.111259
2022-10-11T02:29:55.080Z,51.111328
2022-10-11T02:30:55.129Z,51.111301
2022-10-11T02:31:55.058Z,51.111301
2022-10-11T02:32:55.057Z,51.111244
2022-10-11T02:33:55.096Z,51.111271
2022-10-11T02:34:55.031Z,51.111290
2022-10-11T02:35:55.161Z,51.111259
2022-10-11T02:36:55.112Z,51.111279
2022-10-11T02:37:55.002Z,51.111309
2022-10-11T02:38:55.137Z,51.111256
2022-10-11T02:39:55.157Z,51.111202
2022-10-11T02:40:55.074Z,51.111198
2022-10-11T02:41:55.054Z,51.111286
2022-10-11T02:42:55.046Z,51.111317
2022-10-11T02:43:55.055Z,51.111320
2022-10-11T02:44:55.090Z,51.111332
2022-10-11T02:45:54.952Z,51.111290
2022-10-11T02:46:54.942Z,51.111328
2022-10-11T02:47:54.914Z,51.111382
2022-10-11T02:48:54.921Z,51.111374
2022-10-11T02:49:54.961Z,51.111370
2022-10-11T02:50:54.900Z,51.111404
2022-10-11T02:51:54.927Z,51.111389
2022-10-11T02:52:54.907Z,51.111382
2022-10-11T02:53:54.875Z,51.111431
2022-10-11T02:54:54.887Z,51.111515
2022-10-11T02:55:54.940Z,51.111485
2022-10-11T02:56:54.881Z,51.111397
2022-10-11T02:57:54.955Z,51.111374
2022-10-11T02:58:54.894Z,51.111454
2022-10-11T02:59:54.940Z,51.111397
2022-10-11T03:00:55.004Z,51.111465
2022-10-11T03:01:54.929Z,51.111313
2022-10-11T03:02:54.988Z,51.111320
2022-10-11T03:03:54.906Z,51.111309
2022-10-11T03:04:54.817Z,51.111332
2022-10-11T03:05:54.899Z,51.111324
2022-10-11T03:06:54.992Z,51.111282
2022-10-11T03:07:54.812Z,51.111286
2022-10-11T03:08:54.880Z,51.111279
2022-10-11T03:09:54.875Z,51.111294
2022-10-11T03:10:54.804Z,51.111336
2022-10-11T03:11:54.820Z,51.111385
2022-10-11T03:12:54.751Z,51.111351
2022-10-11T03:13:54.768Z,51.111298
2022-10-11T03:14:54.839Z,51.111332
2022-10-11T03:16:02.703Z,51.111359
2022-10-11T03:17:12.125Z,51.111320
2022-10-11T03:17:55.730Z,51.111313
2022-10-11T03:18:54.739Z,51.111355
2022-10-11T03:19:54.706Z,51.111347
2022-10-11T03:20:54.878Z,51.111393
2022-10-11T03:21:54.824Z,51.111313
2022-10-11T03:22:54.936Z,51.111332
2022-10-11T03:23:54.843Z,51.111286
2022-10-11T03:24:57.455Z,51.111313
2022-10-11T03:25:54.679Z,51.111313
2022-10-11T03:26:54.758Z,51.111328
2022-10-11T03:27:54.790Z,51.111313
2022-10-11T03:28:54.707Z,51.111317
2022-10-11T03:29:54.780Z,51.111279
2022-10-11T03:30:54.732Z,51.111233
2022-10-11T03:31:54.628Z,51.111301
2022-10-11T03:32:55.828Z,51.111332
2022-10-11T03:33:54.783Z,51.111328
2022-10-11T03:34:54.611Z,51.111290
2022-10-11T03:35:54.595Z,51.111343
2022-10-11T03:36:54.599Z,51.111313
2022-10-11T03:37:54.585Z,51.111320
2022-10-11T03:38:54.713Z,51.111298
2022-10-11T03:39:54.658Z,51.111286
2022-10-11T03:40:54.606Z,51.111328
2022-10-11T03:41:54.658Z,51.111313
2022-10-11T03:42:54.652Z,51.111320
2022-10-11T03:43:54.651Z,51.111324
2022-10-11T03:44:54.645Z,51.111332
2022-10-11T03:45:54.663Z,51.111328
2022-10-11T03:46:54.534Z,51.111332
2022-10-11T03:47:54.616Z,51.111305
2022-10-11T03:48:54.687Z,51.111298
2022-10-11T03:49:54.497Z,51.111252
2022-10-11T03:50:54.664Z,51.111317
2022-10-11T03:51:54.583Z,51.111328
2022-10-11T03:52:54.514Z,51.111313
2022-10-11T03:53:54.571Z,51.111271
2022-10-11T03:54:54.501Z,51.111294
2022-10-11T03:55:54.484Z,51.111309
2022-10-11T03:56:54.452Z,51.111309
2022-10-11T03:57:54.556Z,51.111320
2022-10-11T03:58:54.472Z,51.111301
2022-10-11T04:00:10.087Z,51.111301
2022-10-11T04:00:54.430Z,51.111298
2022-10-11T04:01:54.589Z,51.111290
2022-10-11T04:02:54.513Z,51.111282
2022-10-11T04:03:54.547Z,51.111286
2022-10-11T04:04:54.426Z,51.111282
2022-10-11T04:05:54.554Z,51.111279
2022-10-11T04:06:54.477Z,51.111282
2022-10-11T04:07:54.501Z,51.111279
2022-10-11T04:08:54.545Z,51.111290
2022-10-11T04:09:54.510Z,51.111290
2022-10-11T04:10:54.387Z,51.111294
2022-10-11T04:11:54.498Z,51.111290
2022-10-11T04:12:54.441Z,51.111286
2022-10-11T04:13:54.357Z,51.111271
2022-10-11T04:14:54.364Z,51.111271
2022-10-11T04:15:54.329Z,51.111294
2022-10-11T04:16:56.405Z,51.111282
2022-10-11T04:17:55.437Z,51.111286
2022-10-11T04:18:54.303Z,51.111279
2022-10-11T04:19:54.311Z,51.111267
2022-10-11T04:20:54.284Z,51.111286
2022-10-11T04:21:54.424Z,51.111263
2022-10-11T04:22:54.290Z,51.111282
2022-10-11T04:23:54.350Z,51.111259
2022-10-11T04:24:54.364Z,51.111263
2022-10-11T04:25:54.280Z,51.111259
2022-10-11T04:26:54.358Z,51.111252
2022-10-11T04:27:54.705Z,51.111256
2022-10-11T04:28:54.420Z,51.111286
2022-10-11T04:29:54.317Z,51.111275
2022-10-11T04:30:54.367Z,51.111259
2022-10-11T04:31:54.231Z,51.111256
2022-10-11T04:32:54.238Z,51.111298
2022-10-11T04:33:54.293Z,51.111286
2022-10-11T04:34:54.333Z,51.111294
2022-10-11T04:35:54.169Z,51.111309
2022-10-11T04:36:54.287Z,51.111298
2022-10-11T04:37:54.587Z,51.111305
2022-10-11T04:38:54.191Z,51.111259
2022-10-11T04:39:54.236Z,51.111290
2022-10-11T04:40:54.248Z,51.111290
2022-10-11T04:41:54.201Z,51.111252
2022-10-11T04:42:54.242Z,51.111221
2022-10-11T04:43:54.257Z,51.111256
2022-10-11T04:44:54.235Z,51.111317
2022-10-11T04:45:55.588Z,51.111347
2022-10-11T04:46:55.272Z,51.111351
2022-10-11T04:47:54.099Z,51.111404
2022-10-11T04:48:54.169Z,51.111340
2022-10-11T04:49:54.136Z,51.111320
2022-10-11T04:50:54.120Z,51.111340
2022-10-11T04:51:54.081Z,51.111252
2022-10-11T04:52:54.101Z,51.111351
2022-10-11T04:53:54.083Z,51.111401
2022-10-11T04:54:54.139Z,51.111420
2022-10-11T04:55:54.666Z,51.111397
2022-10-11T04:56:54.080Z,51.111370
2022-10-11T04:57:54.059Z,51.111343
2022-10-11T04:58:54.219Z,51.111362
2022-10-11T04:59:54.054Z,51.111458
2022-10-11T05:00:54.097Z,51.111446
2022-10-11T05:01:54.154Z,51.111290
2022-10-11T05:02:54.071Z,51.111176
2022-10-11T05:03:54.061Z,51.111221
2022-10-11T05:04:54.177Z,51.111290
2022-10-11T05:05:54.049Z,51.111309
2022-10-11T05:06:54.058Z,51.111294
2022-10-11T05:07:54.064Z,51.111301
2022-10-11T05:08:54.015Z,51.111279
2022-10-11T05:09:54.029Z,51.111286
2022-10-11T05:10:54.052Z,51.111248
2022-10-11T05:11:53.949Z,51.111252
2022-10-11T05:12:53.987Z,51.111153
2022-10-11T05:13:54.055Z,51.111164
2022-10-11T05:15:01.903Z,51.111202
2022-10-11T05:15:53.988Z,51.111244
2022-10-11T05:16:54.050Z,51.111240
2022-10-11T05:17:53.894Z,51.111221
2022-10-11T05:18:57.379Z,51.111195
2022-10-11T05:19:53.856Z,51.111206
2022-10-11T05:20:53.865Z,51.111309
2022-10-11T05:21:54.075Z,51.111317
2022-10-11T05:22:53.921Z,51.111202
2022-10-11T05:23:53.853Z,51.111149
2022-10-11T05:24:53.922Z,51.111294
2022-10-11T05:25:53.925Z,51.111244
2022-10-11T05:26:53.940Z,51.111225
2022-10-11T05:27:54.559Z,51.111324
2022-10-11T05:28:53.949Z,51.111313
2022-10-11T05:29:53.886Z,51.111225
2022-10-11T05:30:53.794Z,51.111240
2022-10-11T05:31:53.766Z,51.111298
2022-10-11T05:32:54.085Z,51.111317
2022-10-11T05:33:53.855Z,51.111298
2022-10-11T05:34:53.782Z,51.111225
2022-10-11T05:35:53.792Z,51.111244
2022-10-11T05:36:53.787Z,51.111202
2022-10-11T05:37:53.812Z,51.111195
2022-10-11T05:38:53.774Z,51.111183
2022-10-11T05:39:53.765Z,51.111256
2022-10-11T05:40:53.833Z,51.111263
2022-10-11T05:41:53.722Z,51.111290
2022-10-11T05:42:53.840Z,51.111271
2022-10-11T05:43:53.783Z,51.111298
2022-10-11T05:44:53.712Z,51.111214
2022-10-11T05:45:54.047Z,51.111221
2022-10-11T05:46:53.759Z,51.111240
2022-10-11T05:47:53.658Z,51.111282
2022-10-11T05:48:53.827Z,51.111240
2022-10-11T05:49:53.743Z,51.111279
2022-10-11T05:50:53.712Z,51.111279
2022-10-11T05:51:53.727Z,51.111263
2022-10-11T05:52:53.734Z,51.111282
2022-10-11T05:53:53.673Z,51.111271
2022-10-11T05:54:53.637Z,51.111282
2022-10-11T05:55:53.615Z,51.111271
2022-10-11T05:56:53.716Z,51.111259
2022-10-11T05:57:53.629Z,51.111263
2022-10-11T05:58:54.964Z,51.111263
2022-10-11T05:59:53.606Z,51.111279
2022-10-11T06:00:53.912Z,51.111275
2022-10-11T06:01:53.675Z,51.111259
2022-10-11T06:02:53.565Z,51.111275
2022-10-11T06:03:53.639Z,51.111263
2022-10-11T06:04:53.663Z,51.111256
2022-10-11T06:05:56.997Z,51.111271
2022-10-11T06:06:54.699Z,51.111256
2022-10-11T06:07:53.607Z,51.111248
2022-10-11T06:08:53.512Z,51.111252
2022-10-11T06:09:53.649Z,51.111259
2022-10-11T06:10:53.630Z,51.111282
2022-10-11T06:11:53.488Z,51.111271
2022-10-11T06:12:53.556Z,51.111267
2022-10-11T06:13:53.469Z,51.111275
2022-10-11T06:14:53.467Z,51.111263
2022-10-11T06:15:53.532Z,51.111267
2022-10-11T06:16:53.538Z,51.111259
2022-10-11T06:17:53.543Z,51.111275
2022-10-11T06:18:53.465Z,51.111271
2022-10-11T06:19:54.049Z,51.111221
2022-10-11T06:20:53.469Z,51.111256
2022-10-11T06:21:53.658Z,51.111252
2022-10-11T06:22:53.516Z,51.111252
2022-10-11T06:23:58.372Z,51.111271
2022-10-11T06:24:55.518Z,51.111271
2022-10-11T06:25:53.643Z,51.111256
2022-10-11T06:26:53.411Z,51.111252
2022-10-11T06:27:53.451Z,51.111244
2022-10-11T06:28:53.502Z,51.111256
2022-10-11T06:29:53.399Z,51.111259
2022-10-11T06:30:54.495Z,51.111263
2022-10-11T06:31:53.453Z,51.111248
2022-10-11T06:32:53.337Z,51.111271
2022-10-11T06:33:53.439Z,51.111267
2022-10-11T06:34:53.328Z,51.111244
2022-10-11T06:35:53.318Z,51.111210
2022-10-11T06:36:53.807Z,51.111267
2022-10-11T06:37:53.395Z,51.111252
2022-10-11T06:38:53.300Z,51.111237
2022-10-11T06:39:53.376Z,51.111259
2022-10-11T06:40:53.392Z,51.111221
2022-10-11T06:41:53.329Z,51.111217
2022-10-11T06:42:53.386Z,51.111229
2022-10-11T06:43:53.354Z,51.111252
2022-10-11T06:44:53.278Z,51.111259
2022-10-11T06:45:53.346Z,51.111206
2022-10-11T06:46:53.432Z,51.111214
2022-10-11T06:47:53.253Z,51.111263
2022-10-11T06:48:53.400Z,51.111252
2022-10-11T06:49:53.292Z,51.111240
2022-10-11T06:51:00.067Z,51.111240
2022-10-11T06:51:55.379Z,51.111191
2022-10-11T06:52:53.287Z,51.111221
2022-10-11T06:53:53.213Z,51.111286
2022-10-11T06:54:53.176Z,51.111256
2022-10-11T06:55:53.182Z,51.111225
2022-10-11T06:56:53.175Z,51.111195
2022-10-11T06:57:53.205Z,51.111225
2022-10-11T06:58:53.246Z,51.111256
2022-10-11T06:59:53.251Z,51.111240
2022-10-11T07:00:53.300Z,51.111267
2022-10-11T07:01:53.226Z,51.111267
2022-10-11T07:02:53.250Z,51.111248
2022-10-11T07:03:53.196Z,51.111279
2022-10-11T07:04:53.211Z,51.111240
2022-10-11T07:05:53.131Z,51.111240
2022-10-11T07:06:53.203Z,51.111244
2022-10-11T07:07:53.212Z,51.111263
2022-10-11T07:08:53.120Z,51.111221
2022-10-11T07:09:53.236Z,51.111271
2022-10-11T07:10:53.161Z,51.111244
2022-10-11T07:11:53.068Z,51.111214
2022-10-11T07:12:53.149Z,51.111214
2022-10-11T07:13:53.099Z,51.111263
2022-10-11T07:14:53.099Z,51.111267
2022-10-11T07:15:53.067Z,51.111229
2022-10-11T07:16:53.131Z,51.111217
2022-10-11T07:17:53.042Z,51.111233
2022-10-11T07:18:58.786Z,51.111290
2022-10-11T07:19:55.064Z,51.111320
2022-10-11T07:20:53.189Z,51.111290
2022-10-11T07:21:53.115Z,51.111328
2022-10-11T07:22:53.095Z,51.111317
2022-10-11T07:23:52.972Z,51.111340
2022-10-11T07:24:53.114Z,51.111366
2022-10-11T07:25:53.068Z,51.111252
2022-10-11T07:26:53.010Z,51.111282
2022-10-11T07:27:53.057Z,51.111229
2022-10-11T07:28:53.174Z,51.111279
2022-10-11T07:29:52.958Z,51.111336
2022-10-11T07:30:53.059Z,51.111362
2022-10-11T07:31:52.955Z,51.111355
2022-10-11T07:32:52.967Z,51.111324
2022-10-11T07:33:52.911Z,51.111591
2022-10-11T07:34:53.126Z,51.111401
2022-10-11T07:35:52.940Z,51.111389
2022-10-11T07:36:52.962Z,51.111324
2022-10-11T07:37:52.996Z,51.111370
2022-10-11T07:38:52.880Z,51.111382
2022-10-11T07:39:52.931Z,51.111343
2022-10-11T07:40:52.937Z,51.111347
2022-10-11T07:41:53.314Z,51.111355
2022-10-11T07:42:52.938Z,51.111362
2022-10-11T07:43:52.965Z,51.111362
2022-10-11T07:44:52.939Z,51.111366
2022-10-11T07:45:52.897Z,51.111332
2022-10-11T07:46:52.943Z,51.111332
2022-10-11T07:47:52.807Z,51.111347
2022-10-11T07:48:52.806Z,51.111351
2022-10-11T07:49:52.928Z,51.111351
2022-10-11T07:50:52.781Z,51.111347
2022-10-11T07:51:52.760Z,51.111313
2022-10-11T07:52:52.835Z,51.111328
2022-10-11T07:53:52.737Z,51.111385
2022-10-11T07:54:52.785Z,51.111385
2022-10-11T07:55:52.903Z,51.111267
2022-10-11T07:56:52.832Z,51.111305
2022-10-11T07:57:52.779Z,51.111385
2022-10-11T07:58:52.844Z,51.111362
2022-10-11T07:59:52.803Z,51.111328
2022-10-11T08:00:52.794Z,51.111286
2022-10-11T08:01:52.879Z,51.111320
2022-10-11T08:02:52.835Z,51.111290
2022-10-11T08:03:52.803Z,51.111362
2022-10-11T08:04:52.864Z,51.111423
2022-10-11T08:05:52.767Z,51.111404
2022-10-11T08:06:53.605Z,51.111416
2022-10-11T08:07:53.782Z,51.111382
2022-10-11T08:08:52.735Z,51.111324
2022-10-11T08:09:52.673Z,51.111305
2022-10-11T08:10:52.650Z,51.111343
2022-10-11T08:11:52.608Z,51.111320
2022-10-11T08:12:52.619Z,51.111324
2022-10-11T08:13:52.673Z,51.111328
2022-10-11T08:14:52.617Z,51.111332
2022-10-11T08:15:52.620Z,51.111385
2022-10-11T08:16:52.622Z,51.111347
2022-10-11T08:17:52.628Z,51.111374
2022-10-11T08:18:52.648Z,51.111393
2022-10-11T08:19:52.658Z,51.111370
2022-10-11T08:20:52.663Z,51.111420
2022-10-11T08:21:52.644Z,51.111351
2022-10-11T08:22:52.634Z,51.111347
2022-10-11T08:23:52.665Z,51.111324
2022-10-11T08:24:52.627Z,51.111317
2022-10-11T08:25:52.645Z,51.111320
2022-10-11T08:26:52.682Z,51.111324
2022-10-11T08:27:52.518Z,51.111309
2022-10-11T08:28:52.663Z,51.111286
2022-10-11T08:29:52.634Z,51.111286
2022-10-11T08:30:52.626Z,51.111267
2022-10-11T08:31:52.721Z,51.111263
2022-10-11T08:32:52.634Z,51.111248
2022-10-11T08:33:52.585Z,51.111248
2022-10-11T08:34:52.660Z,51.111275
2022-10-11T08:35:52.597Z,51.111305
2022-10-11T08:36:52.567Z,51.111301
2022-10-11T08:37:52.498Z,51.111279
2022-10-11T08:38:52.458Z,51.111328
2022-10-11T08:39:52.440Z,51.111324
2022-10-11T08:40:52.470Z,51.111313
2022-10-11T08:41:52.429Z,51.111286
2022-10-11T08:42:52.463Z,51.111294
2022-10-11T08:43:52.464Z,51.111313
2022-10-11T08:45:09.915Z,51.111328
2022-10-11T08:45:54.504Z,51.111313
2022-10-11T08:46:58.191Z,51.111332
2022-10-11T08:47:53.368Z,51.111343
2022-10-11T08:48:52.425Z,51.111336
2022-10-11T08:49:52.415Z,51.111336
2022-10-11T08:50:52.519Z,51.111313
2022-10-11T08:51:52.457Z,51.111336
2022-10-11T08:52:52.450Z,51.111328
2022-10-11T08:53:52.484Z,51.111320
2022-10-11T08:54:52.422Z,51.111317
2022-10-11T08:55:52.424Z,51.111324
2022-10-11T08:56:52.452Z,51.111340
2022-10-11T08:57:52.495Z,51.111332
2022-10-11T08:58:52.442Z,51.111324
2022-10-11T08:59:52.419Z,51.111286
2022-10-11T09:00:52.447Z,51.111275
2022-10-11T09:01:52.423Z,51.111282
2022-10-11T09:03:07.963Z,51.111309
2022-10-11T09:03:54.301Z,51.111309
2022-10-11T09:04:52.256Z,51.111298
2022-10-11T09:05:52.566Z,51.111294
2022-10-11T09:06:52.330Z,51.111294
2022-10-11T09:07:52.402Z,51.111267
2022-10-11T09:08:52.347Z,51.111305
2022-10-11T09:09:52.310Z,51.111298
2022-10-11T09:10:52.397Z,51.111298
2022-10-11T09:11:52.297Z,51.111313
2022-10-11T09:12:52.347Z,51.111305
2022-10-11T09:13:52.412Z,51.111309
2022-10-11T09:14:52.349Z,51.111305
2022-10-11T09:15:52.339Z,51.111309
2022-10-11T09:16:52.255Z,51.111317
2022-10-11T09:17:52.253Z,51.111298
2022-10-11T09:18:52.305Z,51.111301
2022-10-11T09:19:53.151Z,51.111309
2022-10-11T09:20:52.179Z,51.111301
2022-10-11T09:21:52.227Z,51.111305
2022-10-11T09:22:52.226Z,51.111305
2022-10-11T09:23:52.325Z,51.111298
2022-10-11T09:24:52.234Z,51.111305
2022-10-11T09:25:52.266Z,51.111320
2022-10-11T09:26:52.205Z,51.111313
2022-10-11T09:28:02.289Z,51.111324
2022-10-11T09:28:58.625Z,51.111336
2022-10-11T09:29:53.270Z,51.111301
2022-10-11T09:30:52.241Z,51.111317
2022-10-11T09:31:52.176Z,51.111313
2022-10-11T09:32:52.180Z,51.111298
2022-10-11T09:33:52.158Z,51.111298
2022-10-11T09:34:52.181Z,51.111294
2022-10-11T09:35:52.127Z,51.111324
2022-10-11T09:36:52.060Z,51.111309
2022-10-11T09:37:52.033Z,51.111309
2022-10-11T09:38:52.142Z,51.111286
2022-10-11T09:39:52.150Z,51.111286
2022-10-11T09:40:52.090Z,51.111313
2022-10-11T09:41:52.108Z,51.111305
2022-10-11T09:42:52.098Z,51.111305
2022-10-11T09:43:52.081Z,51.111320
2022-10-11T09:44:52.116Z,51.111271
2022-10-11T09:45:52.005Z,51.111305
2022-10-11T09:46:52.129Z,51.111286
2022-10-11T09:47:52.051Z,51.111290
2022-10-11T09:48:52.094Z,51.111298
2022-10-11T09:49:52.052Z,51.111309
2022-10-11T09:50:52.078Z,51.111294
2022-10-11T09:51:52.032Z,51.111259
2022-10-11T09:52:51.998Z,51.111267
2022-10-11T09:53:51.919Z,51.111286
2022-10-11T09:54:51.899Z,51.111309
2022-10-11T09:55:51.981Z,51.111286
2022-10-11T09:56:52.014Z,51.111324
2022-10-11T09:57:51.872Z,51.111290
2022-10-11T09:58:51.941Z,51.111336
2022-10-11T09:59:51.974Z,51.111290
2022-10-11T10:00:51.953Z,51.111294
2022-10-11T10:01:52.013Z,51.111271
2022-10-11T10:02:51.933Z,51.111271
2022-10-11T10:03:51.985Z,51.111244
2022-10-11T10:04:51.921Z,51.111237
2022-10-11T10:05:52.004Z,51.111259
2022-10-11T10:06:51.907Z,51.111279
2022-10-11T10:07:52.001Z,51.111290
2022-10-11T10:08:51.996Z,51.111317
2022-10-11T10:09:51.987Z,51.111282
2022-10-11T10:10:55.802Z,51.111271
2022-10-11T10:11:52.832Z,51.111275
2022-10-11T10:12:51.970Z,51.111282
2022-10-11T10:13:51.865Z,51.111275
2022-10-11T10:14:51.912Z,51.111267
2022-10-11T10:15:51.835Z,51.111263
2022-10-11T10:16:51.867Z,51.111267
2022-10-11T10:17:51.885Z,51.111279
2022-10-11T10:18:51.850Z,51.111279
2022-10-11T10:19:51.813Z,51.111271
2022-10-11T10:20:51.889Z,51.111267
2022-10-11T10:21:51.780Z,51.111282
2022-10-11T10:22:51.779Z,51.111271
2022-10-11T10:23:51.853Z,51.111279
2022-10-11T10:24:51.835Z,51.111290
2022-10-11T10:25:51.748Z,51.111290
2022-10-11T10:26:51.700Z,51.111282
2022-10-11T10:27:51.673Z,51.111279
2022-10-11T10:28:51.829Z,51.111275
2022-10-11T10:29:51.684Z,51.111263
2022-10-11T10:30:51.780Z,51.111271
2022-10-11T10:32:15.673Z,51.111275
2022-10-11T10:32:53.651Z,51.111275
2022-10-11T10:33:51.703Z,51.111263
2022-10-11T10:34:51.795Z,51.111279
2022-10-11T10:35:51.757Z,51.111305
2022-10-11T10:36:51.716Z,51.111298
2022-10-11T10:37:51.696Z,51.111275
2022-10-11T10:38:52.417Z,51.111328
2022-10-11T10:39:52.689Z,51.111290
2022-10-11T10:40:51.652Z,51.111286
2022-10-11T10:41:51.678Z,51.111271
2022-10-11T10:42:51.549Z,51.111279
2022-10-11T10:43:51.558Z,51.111259
2022-10-11T10:44:51.641Z,51.111263
2022-10-11T10:45:51.596Z,51.111282
2022-10-11T10:46:51.539Z,51.111271
2022-10-11T10:47:51.621Z,51.111244
2022-10-11T10:49:54.660Z,51.111279
2022-10-11T10:50:52.953Z,51.111267
2022-10-11T10:51:51.522Z,51.111279
2022-10-11T10:52:51.603Z,51.111290
2022-10-11T10:53:51.681Z,51.111282
2022-10-11T10:54:51.629Z,51.111267
2022-10-11T10:55:51.562Z,51.111256
2022-10-11T10:56:51.618Z,51.111233
2022-10-11T10:57:51.544Z,51.111275
2022-10-11T10:58:51.536Z,51.111294
2022-10-11T10:59:51.525Z,51.111294
2022-10-11T11:00:51.546Z,51.111256
2022-10-11T11:01:51.591Z,51.111275
2022-10-11T11:02:51.573Z,51.111301
2022-10-11T11:03:51.458Z,51.111271
2022-10-11T11:04:51.449Z,51.111282
2022-10-11T11:05:51.530Z,51.111298
2022-10-11T11:06:51.379Z,51.111282
2022-10-11T11:07:51.507Z,51.111248
2022-10-11T11:08:51.472Z,51.111248
2022-10-11T11:09:51.436Z,51.111240
2022-10-11T11:10:51.462Z,51.111252
2022-10-11T11:11:51.524Z,51.111263
2022-10-11T11:12:51.519Z,51.111271
2022-10-11T11:13:51.493Z,51.111237
2022-10-11T11:14:51.590Z,51.111252
2022-10-11T11:15:51.576Z,51.111225
2022-10-11T11:16:51.625Z,51.111233
2022-10-11T11:17:51.730Z,51.111259
2022-10-11T11:18:51.617Z,51.111267
2022-10-11T11:19:51.553Z,51.111252
2022-10-11T11:20:51.503Z,51.111240
2022-10-11T11:21:51.503Z,51.111225
2022-10-11T11:22:51.514Z,51.111191
2022-10-11T11:23:51.495Z,51.111160
2022-10-11T11:24:51.378Z,51.111225
2022-10-11T11:25:51.383Z,51.111240